Latest Coastal Weather Observations for Port Augusta

IDS60701

Issued at 1:51 am CST Sunday 24 September 2017 (issued every 10 minutes, with the page automatically refreshed every 10 minutes)

About coastal observations | Map of coastal stations | Coastal observations for SA | Marine services | Other Formats
Station Details ID: 018201 Name: PORT AUGUSTA AERO Lat: -32.51 Lon: 137.72 Height: 13.97 m
Data from the previous 72 hours. | See also: Recent months at Port Augusta
Date/Time
CST
Temp
°C
Wind Pressure Rain since
9am
mm
Weather Cloud Vis
km
Sea
Height
m
Swell
Dir  Spd
kts
Gust
kts
hPa Trend Height
m
Period
s
Dir
24/01:30am 14.3 W 6 9 1007.6 - 0.0 - - 10 - - - -
24/01:00am 14.3 WSW 6 10 1007.7 - 0.0 - - 10 - - - -
24/12:30am 14.4 W 5 7 1007.7 - 0.0 - - 10 - - - -
24/12:00am 14.6 W 4 6 1007.3 - 0.0 - - 10 - - - -
 
Date/Time
CST
Temp
°C
Wind Pressure Rain since
9am
mm
Weather Cloud Vis
km
Sea
Height
m
Swell
Dir  Spd
kts
Gust
kts
hPa Trend Height
m
Period
s
Dir
23/11:30pm 14.9 WSW 5 7 1007.2 - 0.0 - - 10 - - - -
23/11:00pm 15.1 NW 3 4 1007.4 - 0.0 - - 10 - - - -
23/10:30pm 14.8 NW 4 5 1007.4 - 0.0 - - 10 - - - -
23/10:00pm 16.2 WSW 9 10 1007.2 - 0.0 - - 10 - - - -
23/09:30pm 16.6 WSW 7 8 1007.1 - 0.0 - - 10 - - - -
23/09:00pm 18.0 WSW 9 12 1007.4 - 0.0 - - 10 - - - -
23/08:30pm 18.6 WSW 10 13 1007.1 - 0.0 - - 10 - - - -
23/08:00pm 19.7 WSW 11 15 1006.5 - 0.0 - - 10 - - - -
23/07:30pm 19.9 WSW 11 14 1005.9 - 0.0 - - 10 - - - -
23/07:00pm 21.1 WSW 13 15 1005.4 - 0.0 - - 10 - - - -
23/06:30pm 22.2 W 15 21 1004.8 - 0.0 - - 10 - - - -
23/06:00pm 23.4 W 15 20 1004.2 - 0.0 - - 10 - - - -
23/05:30pm 24.5 W 18 25 1003.7 - 0.0 - - 10 - - - -
23/05:00pm 25.5 W 19 25 1003.4 - 0.0 - - 10 - - - -
23/04:30pm 26.0 W 16 22 1003.1 - 0.0 - - 10 - - - -
23/04:02pm 26.7 W 16 26 1002.8 - 0.0 - - 10 - - - -
23/04:00pm 26.5 W 16 24 1002.9 - 0.0 - - 10 - - - -
23/03:32pm 27.5 W 17 27 1002.7 - 0.0 - - 10 - - - -
23/03:30pm 26.9 W 18 27 1002.7 - 0.0 - - 10 - - - -
23/03:00pm 27.4 W 19 29 1002.3 - 0.0 - - 10 - - - -
23/02:33pm 28.4 WNW 23 33 1002.2 - 0.0 - - 10 - - - -
23/02:30pm 28.8 WNW 23 29 1002.2 - 0.0 - - 10 - - - -
23/02:00pm 28.6 W 23 34 1001.9 - 0.0 - - 10 - - - -
23/01:30pm 28.6 WNW 27 40 1001.7 - 0.0 - - 10 - - - -
23/01:02pm 29.2 WNW 26 37 1001.6 - 0.0 - - 10 - - - -
23/01:00pm 29.1 W 26 34 1001.7 - 0.0 - - 10 - - - -
23/12:34pm 29.6 WNW 26 37 1001.6 - 0.0 - - 10 - - - -
23/12:30pm 29.2 WNW 26 34 1001.7 - 0.0 - - 10 - - - -
23/12:00pm 29.1 WNW 26 36 1001.7 - 0.0 - - 10 - - - -
23/11:35am 29.0 W 21 31 1001.8 - 0.0 - - 10 - - - -
23/11:30am 29.3 W 23 30 1001.8 - 0.0 - - 10 - - - -
23/11:00am 28.1 WSW 19 30 1001.9 - 0.0 - - 10 - - - -
23/10:55am 28.0 W 19 30 1002.0 - 0.0 - - 10 - - - -
23/10:30am 27.7 W 20 29 1002.0 - 0.0 - - 10 - - - -
23/10:02am 26.6 WSW 20 30 1002.1 - 0.0 - - 10 - - - -
23/10:00am 26.9 WSW 21 30 1002.1 - 0.0 - - 10 - - - -
23/09:51am 27.0 WSW 20 30 1002.0 - 0.0 - - 10 - - - -
23/09:30am 27.2 W 20 26 1001.7 - 0.0 - - 10 - - - -
23/09:25am 27.4 W 16 26 1001.6 - 0.0 - - 10 - - - -
23/09:00am 26.8 W 17 22 1001.3 - 0.0 - - 10 - - - -
23/08:30am 25.7 WSW 21 28 1000.8 - 0.0 - - 10 - - - -
23/08:03am 25.9 WNW 12 26 1000.3 - 0.0 - - 10 - - - -
23/08:00am 25.0 WNW 10 21 1000.2 - 0.0 - - 10 - - - -
23/07:56am 23.9 NW 9 17 1000.2 - 0.0 - - 10 - - - -
23/07:30am 18.9 NNW 7 9 999.6 - 0.0 - - 10 - - - -
23/07:00am 18.6 NW 8 10 998.8 - 0.0 - - 10 - - - -
23/06:30am 17.3 NW 10 11 998.3 - 0.0 - - 10 - - - -
23/06:00am 17.7 NW 10 12 998.2 - 0.0 - - 10 - - - -
23/05:30am 18.5 NW 10 13 997.4 - 0.0 - - 10 - - - -
23/05:00am 19.4 NW 11 14 996.6 - 0.0 - - 10 - - - -
23/04:30am 17.6 WNW 9 11 996.9 - 0.0 - - 10 - - - -
23/04:00am 17.4 W 7 10 996.8 - 0.0 - - 10 - - - -
23/03:30am 19.9 WNW 9 12 997.0 - 0.0 - - 10 - - - -
23/03:00am 20.4 NW 10 13 997.4 - 0.0 - Partly cloudy 10 - - - -
23/02:49am 19.4 NW 8 13 997.6 - 0.0 - - 10 - - - -
23/02:30am 14.4 W 6 7 998.0 - 0.0 - - 10 - - - -
23/02:00am 14.1 W 6 7 998.8 - 0.0 - - 10 - - - -
23/01:30am 15.1 WNW 5 6 999.5 - 0.0 - - 10 - - - -
23/01:00am 16.5 W 4 7 1000.0 - 0.0 - - 10 - - - -
23/12:30am 18.2 ESE 4 9 1000.5 - 0.0 - - 10 - - - -
23/12:00am 19.2 ESE 9 11 1001.1 - 0.0 - - 10 - - - -
 
Date/Time
CST
Temp
°C
Wind Pressure Rain since
9am
mm
Weather Cloud Vis
km
Sea
Height
m
Swell
Dir  Spd
kts
Gust
kts
hPa Trend Height
m
Period
s
Dir
22/11:30pm 20.7 ESE 9 10 1001.6 - 0.0 - - 10 - - - -
22/11:00pm 21.0 SSW 5 7 1002.0 - 0.0 - - 10 - - - -
22/10:30pm 23.4 SW 4 8 1002.1 - 0.0 - - 10 - - - -
22/10:16pm 25.0 SW 11 18 1002.2 - 0.0 - - 10 - - - -
22/10:00pm 19.9 W 4 5 1002.1 - 0.0 - - 10 - - - -
22/09:30pm 20.1 WSW 2 5 1002.2 - 0.0 - - 10 - - - -
22/09:00pm 22.1 CALM 0 3 1002.1 - 0.0 - Mostly cloudy 10 - - - -
22/08:30pm 23.6 WSW 3 5 1001.9 - 0.0 - - 10 - - - -
22/08:00pm 24.6 SW 5 6 1001.8 - 0.0 - - 10 - - - -
22/07:30pm 25.7 N 7 8 1001.7 - 0.0 - - 10 - - - -
22/07:00pm 27.6 NW 7 8 1001.6 - 0.0 - - 10 - - - -
22/06:30pm 30.0 WNW 8 10 1001.7 - 0.0 - - 10 - - - -
22/06:00pm 32.6 WNW 10 12 1001.7 - 0.0 - Mostly cloudy 10 - - - -
22/05:30pm 33.4 WNW 14 18 1001.9 - 0.0 - - 10 - - - -
22/05:00pm 34.1 WNW 17 23 1001.9 - 0.0 - - 10 - - - -
22/04:30pm 34.9 WNW 19 27 1002.0 - 0.0 - - 10 - - - -
22/04:14pm 35.3 NW 19 29 1002.0 - 0.0 - - 10 - - - -
22/04:00pm 35.1 WNW 20 28 1002.0 - 0.0 - - 10 - - - -
22/03:48pm 35.5 NW 15 25 1002.1 - 0.0 - - 10 - - - -
22/03:30pm 35.4 NW 13 22 1002.2 - 0.0 - - 10 - - - -
22/03:13pm 35.4 WNW 16 26 1002.4 - 0.0 - - 10 - - - -
22/03:00pm 35.4 WNW 15 22 1002.6 - 0.0 - - 10 - - - -
22/02:36pm 35.3 NW 15 25 1002.7 - 0.0 - - 10 - - - -
22/02:30pm 35.3 NW 14 19 1002.9 - 0.0 - - 10 - - - -
22/02:00pm 35.2 NW 14 21 1003.3 - 0.0 - - 10 - - - -
22/01:30pm 34.7 NW 16 25 1003.8 - 0.0 - - 10 - - - -
22/01:00pm 33.5 NW 16 24 1004.3 - 0.0 - - 10 - - - -
22/12:30pm 33.4 NNW 15 19 1004.8 - 0.0 - - 10 - - - -
22/12:00pm 32.7 N 14 22 1005.2 - 0.0 - - 10 - - - -
22/11:30am 31.3 N 13 17 1005.7 - 0.0 - - 10 - - - -
22/11:00am 29.7 NNW 11 15 1006.2 - 0.0 - - 10 - - - -
22/10:30am 28.2 NNW 14 18 1006.8 - 0.0 - - 10 - - - -
22/10:00am 25.9 NW 11 15 1007.1 - 0.0 - - 10 - - - -
22/09:30am 23.1 NW 4 6 1006.8 - 0.0 - - 10 - - - -
22/09:00am 20.3 N 4 6 1007.0 - 0.0 - - 10 - - - -
22/08:30am 17.5 NNW 4 6 1007.7 - 0.0 - - 10 - - - -
22/08:00am 15.3 NNW 6 8 1007.9 - 0.0 - - 10 - - - -
22/07:30am 12.8 N 1 4 1007.9 - 0.0 - - 10 - - - -
22/07:00am 10.2 NNW 5 5 1007.7 - 0.0 - - 10 - - - -
22/06:30am 7.8 N 1 5 1007.7 - 0.0 - - 10 - - - -
22/06:00am 8.1 SW 6 7 1007.6 - 0.0 - - 10 - - - -
22/05:30am 8.1 NW 5 7 1007.4 - 0.0 - - 10 - - - -
22/05:00am 9.4 NW 6 7 1007.1 - 0.0 - - 10 - - - -
22/04:30am 10.6 NNE 1 3 1007.0 - 0.0 - - 10 - - - -
22/04:00am 11.7 SSE 3 5 1006.9 - 0.0 - - 10 - - - -
22/03:30am 12.5 SSE 6 7 1007.3 - 0.0 - - 10 - - - -
22/03:00am 14.2 SE 8 12 1007.3 - 0.0 - - 10 - - - -
22/02:30am 13.7 SE 5 9 1007.8 - 0.0 - - 10 - - - -
22/02:00am 14.1 SE 7 11 1008.2 - 0.0 - - 10 - - - -
22/01:30am 14.2 SE 7 10 1008.9 - 0.0 - - 10 - - - -
22/01:00am 13.3 SSE 4 6 1009.5 - 0.0 - - 10 - - - -
22/12:30am 13.9 ESE 6 8 1010.2 - 0.0 - - 10 - - - -
22/12:00am 13.8 ENE 5 7 1010.4 - 0.0 - - 10 - - - -
 
Date/Time
CST
Temp
°C
Wind Pressure Rain since
9am
mm
Weather Cloud Vis
km
Sea
Height
m
Swell
Dir  Spd
kts
Gust
kts
hPa Trend Height
m
Period
s
Dir
21/11:30pm 15.0 ESE 5 7 1010.4 - 0.0 - - 10 - - - -
21/11:00pm 17.4 S 5 8 1010.5 - 0.0 - - 10 - - - -
21/10:30pm 17.1 SW 6 8 1010.5 - 0.0 - - 10 - - - -
21/10:00pm 17.6 SSE 8 11 1010.7 - 0.0 - - 10 - - - -
21/09:30pm 17.9 SE 16 21 1010.2 - 0.0 - - 10 - - - -
21/09:00pm 18.0 SE 17 23 1010.0 - 0.0 - - 10 - - - -
21/08:38pm 18.7 SE 15 27 1009.9 - 0.0 - - 10 - - - -
21/08:30pm 18.8 SE 11 19 1010.1 - 0.0 - - 10 - - - -
21/08:00pm 16.7 SE 5 8 1009.9 - 0.0 - - 10 - - - -
21/07:30pm 17.2 SSE 5 11 1009.6 - 0.0 - - 10 - - - -
21/07:00pm 17.7 SE 13 18 1008.8 - 0.0 - - 10 - - - -
21/06:30pm 18.1 SE 15 22 1008.2 - 0.0 - - 10 - - - -
21/06:00pm 18.9 SE 15 23 1007.9 - 0.0 - - 10 - - - -
21/05:30pm 19.9 SE 15 20 1007.5 - 0.0 - - 10 - - - -
21/05:07pm 24.4 N 7 16 1007.3 - 0.0 - - 10 - - - -
21/05:00pm 29.4 NNW 7 11 1007.1 - 0.0 - - 10 - - - -
21/04:30pm 29.9 NW 7 9 1007.1 - 0.0 - - 10 - - - -
21/04:00pm 30.5 NW 9 15 1007.1 - 0.0 - - 10 - - - -
21/03:30pm 30.4 WNW 10 15 1007.3 - 0.0 - - 10 - - - -
21/03:00pm 30.7 NNW 13 19 1007.7 - 0.0 - - 10 - - - -
21/02:30pm 30.2 NW 12 19 1007.9 - 0.0 - - 10 - - - -
21/02:00pm 30.7 NW 12 19 1008.2 - 0.0 - - 10 - - - -
21/01:30pm 29.5 WNW 16 22 1008.8 - 0.0 - - 10 - - - -
21/01:00pm 29.9 NW 14 20 1009.2 - 0.0 - - 10 - - - -
21/12:30pm 29.1 NNW 13 20 1009.7 - 0.0 - - 10 - - - -
21/12:00pm 27.9 NNW 15 20 1010.3 - 0.0 - - 10 - - - -
21/11:30am 27.5 NW 18 25 1010.8 - 0.0 - - 10 - - - -
21/11:00am 26.2 NNW 13 18 1011.3 - 0.0 - - 10 - - - -
21/10:30am 24.6 NNW 14 18 1011.6 - 0.0 - - 10 - - - -
21/10:00am 23.9 NNW 13 18 1012.0 - 0.0 - - 10 - - - -
21/09:30am 23.0 NNW 13 17 1012.2 - 0.0 - - 10 - - - -
21/09:00am 21.6 N 12 15 1012.2 - - - - 10 - - - -
21/08:30am 20.6 NNW 12 15 1012.5 - - - - 10 - - - -
21/08:00am 18.4 NNW 9 11 1012.6 - - - - 10 - - - -
21/07:30am 17.3 NNW 9 12 1012.5 - - - - 10 - - - -
21/07:00am 14.6 NW 8 11 1012.4 - - - - 10 - - - -
21/06:30am 13.7 WNW 9 10 1011.9 - - - - 10 - - - -
21/06:00am 14.5 NW 10 12 1011.7 - - - Mostly cloudy 10 - - - -
21/05:30am 15.0 NW 9 11 1011.3 - - - - 10 - - - -
21/05:00am 15.2 NW 9 12 1011.2 - - - - 10 - - - -
21/04:30am 15.7 NW 11 16 1010.8 - - - - 10 - - - -
21/04:00am 15.6 NW 10 14 1010.7 - - - - 10 - - - -
21/03:30am 15.2 NW 11 14 1010.7 - - - - 10 - - - -
21/03:00am 12.9 WNW 8 10 1010.7 - 0.0 - Mostly cloudy 10 - - - -
21/02:30am 14.6 NW 10 13 1010.9 - - - - 10 - - - -
21/02:00am 14.9 NW 10 13 1011.4 - - - - 10 - - - -

Other Formats:

Comma delimited format used in spreadsheet applications
http://www.bom.gov.au/fwo/IDS60701/IDS60701.95666.axf

JavaScript Object Notation format (JSON) in row-major order
http://www.bom.gov.au/fwo/IDS60701/IDS60701.95666.json